Lanark Village, Florida
Current Conditions -  °F | °C
As of 5:53 AM on Saturday 20 Dec 2014 (Local Time) from KAAF Reporting Station
Overcast Overcast  
Wind Chill: 54°   Ceiling: 8000
Heat Index: 54°   Visibility: 10mi
Dew Point: 48°   Wind: 8mph
Humidity: 80%   Direction: 40°NE
Pressure: 30.06"   Gusts: NA
Location:  29.88°N, 84.6°W
Report Text: KAAF 201053Z AUTO 04007KT 10SM OVC080 12/09 A3006 RMK AO2 SLP179 T01220089 TSNO
Loading
Personal Weather Stations






























Interactive Weather Map New forecast layout! Learn more

10-Day Weather Forecast

Advertisements
Track Severe Weather on mobile